Time;durP1;ratioP1;P1;durP2;ratioP2;P2;SDS_P1;SDS_P2;PMS_P1;PMS_P2;Temp;Humidity;BMP_temperature;BMP_pressure;BME280_temperature;BME280_humidity;BME280_pressure;Samples;Min_cycle;Max_cycle;Signal;HPM_P1;HPM_P2
2022/04/01 00:01:48;;;;;;;9.73;8.90;;;3.50;99.90;;;3.60;89.85;100352.31;5073492;28;20126;-64
2022/04/01 00:04:17;;;;;;;9.87;8.97;;;3.60;99.90;;;3.54;89.79;100346.97;5072919;28;20456;-65
2022/04/01 00:06:45;;;;;;;8.77;8.07;;;3.60;99.90;;;3.60;89.60;100362.75;5073185;28;20048;-65
2022/04/01 00:09:15;;;;;;;9.10;8.40;;;3.60;99.90;;;3.56;89.58;100365.31;5076438;28;20044;-64
2022/04/01 00:11:44;;;;;;;8.85;8.05;;;3.60;99.90;;;3.34;89.75;100329.25;5077050;28;20456;-65
2022/04/01 00:14:12;;;;;;;8.10;7.40;;;3.60;99.90;;;3.52;89.58;100373.97;5077240;28;20102;-65
2022/04/01 00:16:41;;;;;;;8.30;7.70;;;3.50;99.90;;;3.56;89.99;100365.31;5075900;28;20052;-66
2022/04/01 00:19:12;;;;;;;8.67;7.87;;;3.60;99.90;;;3.66;89.92;100367.19;5077051;28;20393;-65
2022/04/01 00:21:41;;;;;;;9.13;8.33;;;3.60;99.90;;;3.66;89.47;100375.94;5077138;28;20047;-65
2022/04/01 00:24:09;;;;;;;8.57;7.87;;;3.60;99.90;;;3.77;89.60;100381.34;5076704;28;20094;-64
2022/04/01 00:26:39;;;;;;;7.77;7.10;;;3.70;99.90;;;3.75;89.65;100377.81;5076716;28;20131;-65
2022/04/01 00:29:16;;;;;;;8.63;7.82;;;3.70;99.90;;;3.55;89.29;100377.50;5075737;28;20045;-65
2022/04/01 00:31:44;;;;;;;8.80;8.10;;;3.60;99.90;;;3.22;89.75;100329.03;5075695;28;20052;-64
2022/04/01 00:34:16;;;;;;;8.30;7.67;;;3.50;99.90;;;3.53;89.53;100375.72;5076889;28;20037;-65
2022/04/01 00:36:46;;;;;;;9.57;8.70;;;3.60;99.90;;;3.50;89.59;100370.47;5076548;28;20044;-64
2022/04/01 00:39:16;;;;;;;8.83;8.00;;;3.50;99.90;;;3.44;89.62;100380.81;5075388;28;20482;-64
2022/04/01 00:41:49;;;;;;;8.88;8.07;;;3.50;99.90;;;3.40;89.65;100400.78;5076502;28;20048;-64
2022/04/01 00:44:20;;;;;;;8.67;7.97;;;3.40;99.90;;;3.23;89.81;100378.69;5076245;28;20040;-64
2022/04/01 00:46:51;;;;;;;9.50;8.70;;;3.30;99.90;;;3.18;90.04;100374.25;5076743;28;20455;-64
2022/04/01 00:49:21;;;;;;;10.87;9.57;;;3.30;99.90;;;3.40;90.15;100387.72;5075291;28;20053;-64
2022/04/01 00:51:53;;;;;;;10.07;9.18;;;3.40;99.90;;;3.30;89.58;100385.81;5076502;28;20049;-64
2022/04/01 00:54:22;;;;;;;10.63;9.63;;;3.30;99.90;;;3.27;89.71;100370.06;5076481;28;20380;-64
2022/04/01 00:56:54;;;;;;;10.63;9.57;;;3.30;99.90;;;3.19;89.95;100389.09;5076025;28;20060;-64
2022/04/01 00:59:24;;;;;;;9.80;8.90;;;3.20;99.90;;;3.14;89.86;100440.38;5076330;28;20033;-64
2022/04/01 01:01:52;;;;;;;11.50;10.10;;;3.20;99.90;;;1.77;90.15;100167.28;5076334;28;20045;-64
2022/04/01 01:04:21;;;;;;;10.60;9.60;;;3.10;99.90;;;2.96;90.53;100357.31;5091901;28;20394;-64
2022/04/01 01:06:53;;;;;;;10.50;9.47;;;3.20;99.90;;;2.42;90.56;100278.91;5075943;28;20041;-65
2022/04/01 01:09:25;;;;;;;11.17;10.10;;;3.20;99.90;;;3.11;90.60;100396.81;5075886;28;20380;-64
2022/04/01 01:11:56;;;;;;;10.40;9.30;;;3.20;99.90;;;3.23;90.74;100404.84;5076249;28;20056;-64
2022/04/01 01:14:28;;;;;;;10.30;9.33;;;3.20;99.90;;;3.14;90.55;100409.91;5074901;28;20402;-65
2022/04/01 01:16:58;;;;;;;10.37;9.37;;;3.20;99.90;;;2.53;90.46;100329.59;5091697;28;20076;-64
2022/04/01 01:19:28;;;;;;;11.05;9.95;;;3.00;99.90;;;2.96;91.30;100408.72;5074277;28;20078;-66
2022/04/01 01:21:58;;;;;;;10.68;9.07;;;3.00;99.90;;;2.88;91.29;100407.69;5076044;28;20052;-64
2022/04/01 01:24:31;;;;;;;11.40;10.13;;;2.90;99.90;;;2.84;91.56;100391.09;5075719;28;20561;-65
2022/04/01 01:27:01;;;;;;;10.50;9.50;;;2.90;99.90;;;2.99;91.34;100416.59;5075876;28;20282;-64
2022/04/01 01:29:32;;;;;;;10.67;9.33;;;3.00;99.90;;;2.78;91.29;100427.50;5074672;28;20052;-63
2022/04/01 01:32:07;;;;;;;11.55;9.70;;;2.90;99.90;;;2.85;91.50;100394.53;5075809;28;20055;-64
2022/04/01 01:34:39;;;;;;;10.60;9.60;;;2.90;99.90;;;2.87;91.57;100414.63;5074450;28;20079;-64
2022/04/01 01:37:10;;;;;;;10.93;9.95;;;2.90;99.90;;;2.63;91.40;100365.44;5091407;28;20053;-64
2022/04/01 01:39:41;;;;;;;12.17;10.77;;;2.90;99.90;;;2.91;91.95;100423.38;5091313;28;20052;-66
2022/04/01 01:42:11;;;;;;;12.90;10.80;;;2.90;99.90;;;3.00;91.83;100410.53;5091303;28;20139;-64
2022/04/01 01:44:39;;;;;;;11.67;10.47;;;3.00;99.90;;;2.95;91.59;100420.00;5075166;28;20128;-65
2022/04/01 01:47:09;;;;;;;11.53;10.33;;;3.00;99.90;;;3.02;91.91;100407.06;5074283;28;20041;-64
2022/04/01 01:49:37;;;;;;;10.33;9.33;;;3.00;99.90;;;3.15;91.70;100423.84;5075413;28;20052;-64
2022/04/01 01:54:54;;;;;;;9.13;8.33;;;3.10;99.90;;;3.10;91.84;100409.81;5075449;28;20048;-64
2022/04/01 01:57:25;;;;;;;10.85;8.93;;;3.20;99.90;;;3.21;91.89;100430.09;5075322;28;20049;-64
2022/04/01 01:59:55;;;;;;;10.50;9.60;;;3.20;99.90;;;3.12;91.61;100418.56;5074011;28;20047;-64
2022/04/01 02:02:24;;;;;;;10.07;9.13;;;3.20;99.90;;;3.17;91.51;100428.25;5090876;28;20170;-64
2022/04/01 02:04:52;;;;;;;11.50;9.83;;;3.20;99.90;;;3.20;91.40;100424.81;5075128;28;20127;-64
2022/04/01 02:07:24;;;;;;;10.10;9.20;;;3.20;99.90;;;3.18;91.38;100435.25;5073838;28;20423;-65
2022/04/01 02:09:54;;;;;;;12.27;9.97;;;3.20;99.90;;;3.28;91.66;100431.06;5073806;28;20131;-65
2022/04/01 02:12:22;;;;;;;10.93;9.93;;;3.30;99.90;;;3.00;91.29;100387.88;5073795;28;20048;-64
2022/04/01 02:14:51;;;;;;;11.17;10.17;;;3.30;99.90;;;3.33;91.23;100437.25;5073654;28;20094;-64
2022/04/01 02:17:22;;;;;;;10.33;9.33;;;3.30;99.90;;;3.26;90.73;100425.81;5073617;28;20402;-66
2022/04/01 02:19:52;;;;;;;11.73;10.53;;;3.40;99.90;;;3.34;91.12;100441.63;5074921;28;20037;-64
2022/04/01 02:22:21;;;;;;;11.18;10.18;;;3.30;99.90;;;3.31;90.69;100410.22;5073556;28;20045;-66
2022/04/01 02:24:50;;;;;;;11.10;10.10;;;3.40;99.90;;;3.36;90.42;100434.69;5074430;28;20406;-65
2022/04/01 02:27:24;;;;;;;10.98;9.98;;;3.40;99.90;;;3.40;90.70;100452.19;5073436;28;20048;-64
2022/04/01 02:29:52;;;;;;;10.97;9.87;;;3.40;99.90;;;3.40;90.40;100447.84;5073573;28;20048;-64
2022/04/01 02:32:44;;;;;;;11.30;10.10;;;3.40;99.90;;;3.51;90.50;100458.47;5073876;28;20049;-66
2022/04/01 02:35:35;;;;;;;10.57;9.63;;;3.40;99.90;;;3.40;90.17;100440.00;5073297;28;20567;-65
2022/04/01 02:38:04;;;;;;;10.83;9.83;;;3.50;99.90;;;3.48;90.10;100461.91;5090090;28;20133;-64
2022/04/01 02:40:33;;;;;;;17.10;11.10;;;3.50;99.90;;;3.39;90.20;100458.25;5073019;28;20074;-65
2022/04/01 02:43:03;;;;;;;13.07;10.47;;;3.40;99.90;;;3.35;90.37;100459.03;5073325;28;20098;-65
2022/04/01 02:45:34;;;;;;;10.73;9.83;;;3.40;99.90;;;3.45;90.51;100468.81;5089793;28;20473;-65
2022/04/01 02:48:05;;;;;;;10.90;9.80;;;3.40;99.90;;;3.46;90.55;100463.63;5073006;28;20140;-66
2022/04/01 02:50:51;;;;;;;12.83;9.83;;;3.40;99.90;;;3.23;90.28;100443.16;5072988;28;20528;-65
2022/04/01 02:53:20;;;;;;;10.63;9.63;;;3.40;99.90;;;3.44;90.34;100472.28;5072630;28;20098;-65
2022/04/01 02:55:49;;;;;;;10.83;9.73;;;3.40;99.90;;;3.28;90.28;100457.19;5106627;28;20066;-66
2022/04/01 02:58:18;;;;;;;10.53;9.53;;;3.40;99.90;;;3.49;89.90;100481.09;5074049;28;20052;-66
2022/04/01 03:00:47;;;;;;;11.60;10.35;;;3.50;99.90;;;3.45;90.15;100471.41;5072693;28;20044;-66
2022/04/01 03:03:16;;;;;;;10.53;9.63;;;3.50;99.90;;;3.38;90.11;100480.03;5073700;28;20506;-65
2022/04/01 03:05:44;;;;;;;10.90;9.90;;;3.40;99.90;;;3.27;89.95;100473.72;5073928;28;20078;-64
2022/04/01 03:08:13;;;;;;;11.57;10.47;;;3.40;99.90;;;3.30;90.70;100486.84;5089537;28;20485;-67
2022/04/01 03:10:43;;;;;;;11.23;10.13;;;3.30;99.90;;;3.33;90.75;100486.91;5072644;28;20041;-66
2022/04/01 03:13:12;;;;;;;11.82;10.57;;;3.30;99.90;;;3.32;90.74;100492.97;5089173;28;20048;-65
2022/04/01 03:16:06;;;;;;;10.47;9.57;;;3.30;99.90;;;3.44;90.33;100501.03;5062973;28;20520;-66
2022/04/01 03:18:45;;;;;;;10.30;9.37;;;3.40;99.90;;;3.47;90.25;100495.84;5089452;28;20048;-66
2022/04/01 03:21:14;;;;;;;12.37;10.17;;;3.40;99.90;;;3.39;90.23;100500.06;5072328;28;20512;-65
2022/04/01 03:23:45;;;;;;;11.70;10.70;;;3.40;99.90;;;3.47;90.32;100504.59;5072439;28;20397;-66
2022/04/01 03:26:17;;;;;;;11.83;10.63;;;3.50;99.90;;;3.54;90.11;100493.38;5072440;28;20105;-67
2022/04/01 03:28:56;;;;;;;11.53;10.13;;;3.60;99.90;;;3.41;90.12;100499.25;5072655;28;20448;-66
2022/04/01 03:31:29;;;;;;;11.50;10.30;;;3.40;99.90;;;3.08;90.33;100459.44;5072390;28;20154;-65
2022/04/01 03:34:00;;;;;;;10.57;9.57;;;3.30;99.90;;;3.17;90.52;100490.09;5072300;28;20487;-66
2022/04/01 03:36:29;;;;;;;10.02;9.05;;;3.20;99.90;;;3.26;90.25;100508.53;5072528;28;20506;-65
2022/04/01 03:38:59;;;;;;;12.80;11.50;;;3.30;99.90;;;3.14;90.56;100521.34;5089088;28;20072;-66
2022/04/01 03:41:37;;;;;;;12.33;11.07;;;3.20;99.90;;;2.94;90.39;100496.59;5072222;28;20048;-66
2022/04/01 03:44:06;;;;;;;13.63;10.73;;;3.10;99.90;;;3.14;90.49;100524.84;5071549;28;20071;-67
2022/04/01 03:46:48;;;;;;;11.90;10.70;;;3.10;99.90;;;3.13;90.15;100525.72;5088893;28;20151;-66
2022/04/01 03:49:23;;;;;;;11.97;10.87;;;3.20;99.90;;;3.11;90.91;100527.44;5072151;28;20456;-66
2022/04/01 03:51:56;;;;;;;14.63;10.83;;;3.10;99.90;;;3.05;90.57;100502.91;5105685;28;20052;-66
2022/04/01 03:54:28;;;;;;;12.37;11.10;;;3.20;99.90;;;3.10;90.62;100532.59;5072171;28;20076;-65
2022/04/01 03:57:05;;;;;;;12.43;11.13;;;3.10;99.90;;;3.02;90.56;100532.44;5073349;28;20048;-65
2022/04/01 03:59:57;;;;;;;12.30;10.97;;;3.10;99.90;;;2.84;90.45;100486.81;5073374;28;20048;-65
2022/04/01 04:02:43;;;;;;;13.10;11.13;;;3.00;99.90;;;3.04;90.98;100556.88;5073318;28;20044;-65
2022/04/01 04:05:13;;;;;;;12.13;10.83;;;3.00;99.90;;;3.07;90.75;100537.78;5071979;28;20131;-66
2022/04/01 04:07:42;;;;;;;12.10;10.77;;;3.10;99.90;;;3.02;90.93;100536.81;5073132;28;20382;-64
2022/04/01 04:10:15;;;;;;;13.47;11.30;;;3.10;99.90;;;3.03;90.96;100555.13;5071910;28;20047;-65
2022/04/01 04:12:59;;;;;;;11.30;10.30;;;3.00;99.90;;;3.02;90.93;100555.09;5089003;28;20045;-66
2022/04/01 04:15:40;;;;;;;13.10;11.70;;;3.00;99.90;;;2.95;90.83;100551.47;5088795;28;20186;-64
2022/04/01 04:18:17;;;;;;;12.63;10.57;;;3.00;99.90;;;3.10;90.80;100561.34;5088628;28;20053;-65
2022/04/01 04:20:59;;;;;;;11.90;10.47;;;3.10;99.90;;;3.04;90.81;100540.34;5071804;28;20494;-65
2022/04/01 04:23:38;;;;;;;14.43;10.47;;;3.10;99.90;;;2.99;90.65;100555.00;5071816;28;20379;-65
2022/04/01 04:26:11;;;;;;;11.83;10.10;;;3.10;99.90;;;3.07;90.72;100575.22;5071800;28;20052;-64
2022/04/01 04:28:50;;;;;;;12.03;10.70;;;3.10;99.90;;;2.87;90.61;100557.34;5072772;28;20041;-65
2022/04/01 04:31:53;;;;;;;12.87;11.27;;;3.10;99.90;;;3.11;90.70;100566.63;5071699;28;20056;-66
2022/04/01 04:34:28;;;;;;;11.70;10.00;;;3.10;99.90;;;3.08;91.06;100568.28;5073007;28;20098;-65
2022/04/01 04:36:58;;;;;;;12.57;11.37;;;3.10;99.90;;;3.23;90.74;100584.25;5071454;28;20051;-65
2022/04/01 04:39:33;;;;;;;12.53;10.80;;;3.20;99.90;;;3.30;90.88;100589.66;5071630;28;20049;-64
2022/04/01 04:42:04;;;;;;;11.90;10.70;;;3.20;99.90;;;3.11;91.21;100594.47;5071540;28;20405;-64
2022/04/01 04:44:33;;;;;;;11.77;10.50;;;3.20;99.90;;;3.21;91.52;100597.31;5071341;28;20048;-64
2022/04/01 04:47:05;;;;;;;12.73;10.33;;;3.20;99.90;;;3.26;91.57;100595.66;5071559;28;20047;-66
2022/04/01 04:49:42;;;;;;;10.83;9.73;;;3.20;99.90;;;3.11;91.28;100597.97;5088280;28;20517;-64
2022/04/01 04:52:13;;;;;;;10.47;9.37;;;3.20;99.90;;;3.36;91.43;100602.84;5071463;28;20071;-64
2022/04/01 04:54:55;;;;;;;10.83;9.43;;;3.30;99.90;;;3.24;91.08;100596.47;5075112;28;20110;-64
2022/04/01 04:57:53;;;;;;;13.47;10.33;;;3.40;99.90;;;3.45;90.75;100620.41;5073499;28;20092;-64
2022/04/01 05:00:22;;;;;;;11.97;9.60;;;3.40;99.90;;;3.46;91.30;100632.66;5092042;28;20049;-64
2022/04/01 05:03:17;;;;;;;12.80;9.63;;;3.40;99.90;;;2.68;90.51;100488.22;5074815;28;20169;-65
2022/04/01 05:05:51;;;;;;;11.77;10.60;;;3.40;99.90;;;3.37;90.46;100635.94;5091978;28;20052;-64
2022/04/01 05:09:00;;;;;;;11.37;9.90;;;3.40;99.90;;;3.22;90.74;100650.44;5075847;28;20045;-64
2022/04/01 05:11:57;;;;;;;12.60;10.67;;;3.20;99.90;;;3.08;90.43;100644.03;5091536;28;20045;-64
2022/04/01 05:15:05;;;;;;;12.07;9.40;;;3.20;99.90;;;3.11;90.57;100652.81;5075635;28;20052;-64
2022/04/01 05:17:36;;;;;;;12.67;9.97;;;3.10;99.90;;;2.80;90.50;100576.38;5075999;28;20132;-64
2022/04/01 05:20:15;;;;;;;13.27;10.53;;;3.20;99.90;;;3.41;90.82;100670.88;5075795;28;20041;-64
2022/04/01 05:23:01;;;;;;;13.27;10.57;;;3.40;99.90;;;3.43;90.71;100675.28;5091227;28;20140;-64
2022/04/01 05:25:43;;;;;;;10.33;9.30;;;3.40;99.90;;;3.26;90.42;100658.38;5074695;28;20060;-67
2022/04/01 05:28:45;;;;;;;12.87;10.00;;;3.40;99.90;;;3.35;90.99;100670.72;5067014;28;20504;-64
2022/04/01 05:31:20;;;;;;;11.77;9.17;;;3.40;99.90;;;3.51;90.42;100685.91;5074485;28;20060;-64
2022/04/01 05:34:00;;;;;;;12.47;9.33;;;3.50;99.90;;;3.39;90.38;100698.69;5074597;28;20048;-64
2022/04/01 05:36:29;;;;;;;13.07;9.43;;;3.40;99.90;;;3.46;90.74;100695.38;5074566;28;20045;-64
2022/04/01 05:39:03;;;;;;;11.47;10.30;;;3.50;99.90;;;3.37;90.73;100706.50;5108240;28;20047;-64
2022/04/01 05:41:32;;;;;;;11.33;9.40;;;3.40;99.90;;;3.08;90.35;100651.88;5074293;28;20127;-65
2022/04/01 05:44:03;;;;;;;11.13;9.00;;;3.40;99.90;;;3.26;90.11;100712.34;5075542;28;20508;-65
2022/04/01 05:46:41;;;;;;;11.30;9.70;;;3.40;99.90;;;3.44;90.08;100702.31;5075494;28;20131;-64
2022/04/01 05:49:15;;;;;;;10.17;9.13;;;3.40;99.90;;;3.54;90.05;100717.34;5074222;28;20048;-65
2022/04/01 05:51:44;;;;;;;9.93;8.88;;;3.50;99.90;;;3.51;89.84;100725.13;5074449;28;20110;-66
2022/04/01 05:54:19;;;;;;;10.47;8.87;;;3.50;99.90;;;3.60;89.95;100713.09;5075657;28;20513;-66
2022/04/01 05:56:49;;;;;;;15.23;8.13;;;3.60;99.90;;;3.59;89.13;100721.81;5075213;28;20687;-64
2022/04/01 05:59:20;;;;;;;13.10;9.50;;;3.60;99.90;;;3.57;88.93;100733.09;5073972;28;20054;-65
2022/04/01 06:01:57;;;;;;;;;;;3.60;99.90;;;3.66;89.09;100728.94;5074337;28;20047;-66
2022/04/01 06:05:04;;;;;;;9.83;8.70;;;3.60;99.90;;;3.65;88.52;100716.72;5090665;28;19924;-65
2022/04/01 06:07:39;;;;;;;9.57;8.57;;;3.70;99.90;;;3.64;88.21;100732.34;5073484;28;20490;-65
2022/04/01 06:10:21;;;;;;;9.40;8.50;;;3.60;99.90;;;3.61;88.06;100732.31;5074837;28;20040;-65
2022/04/01 06:13:16;;;;;;;9.87;8.93;;;3.60;99.90;;;3.46;88.17;100708.47;5074878;28;20053;-67
2022/04/01 06:16:16;;;;;;;9.77;8.23;;;3.70;99.90;;;3.65;87.92;100741.97;5074613;28;20476;-67
2022/04/01 06:19:08;;;;;;;10.80;9.53;;;3.70;99.90;;;3.71;87.52;100757.81;5073870;28;20406;-67
2022/04/01 06:21:39;;;;;;;9.40;8.40;;;3.70;99.90;;;3.60;87.34;100743.63;5073553;28;20044;-67
2022/04/01 06:24:10;;;;;;;11.33;9.30;;;3.70;99.90;;;3.35;87.18;100694.25;5073548;28;20050;-66
2022/04/01 06:26:55;;;;;;;9.73;8.73;;;3.70;99.90;;;3.74;86.72;100757.84;5073527;28;20056;-66
2022/04/01 06:29:36;;;;;;;11.43;9.63;;;3.70;99.90;;;3.72;86.25;100772.63;5073487;28;20049;-67
2022/04/01 06:32:08;;;;;;;11.97;8.70;;;3.70;99.90;;;1.64;85.78;100371.16;5074701;28;20040;-67
2022/04/01 06:35:03;;;;;;;9.27;7.53;;;3.80;99.90;;;3.83;85.73;100771.16;5073323;28;20041;-68
2022/04/01 06:37:54;;;;;;;10.33;8.03;;;3.80;99.90;;;3.81;84.84;100766.72;5073278;28;20058;-67
2022/04/01 06:40:25;;;;;;;9.67;8.77;;;3.80;99.90;;;3.85;84.32;100774.69;5073215;28;20505;-67
2022/04/01 06:42:56;;;;;;;11.63;8.13;;;3.80;99.90;;;2.97;83.98;100622.00;5073053;28;20051;-66
2022/04/01 06:45:24;;;;;;;;;;;3.90;99.90;;;4.00;84.00;100792.41;5074713;28;20044;-66
2022/04/01 06:48:19;;;;;;;9.40;7.87;;;3.90;99.90;;;3.78;83.03;100757.06;5073101;28;19921;-68
2022/04/01 06:51:20;;;;;;;11.33;8.43;;;4.00;99.90;;;4.13;82.70;100804.88;5061842;28;20064;-67
2022/04/01 06:54:08;;;;;;;10.53;8.73;;;4.10;99.90;;;4.15;81.84;100816.25;5073903;28;20509;-68
2022/04/01 06:56:56;;;;;;;9.30;7.87;;;4.10;99.90;;;4.20;82.10;100815.50;5074142;28;20463;-64
2022/04/01 06:59:26;;;;;;;8.50;7.60;;;4.20;99.90;;;4.24;81.82;100806.88;5090044;28;20052;-64
2022/04/01 07:01:55;;;;;;;10.15;7.53;;;4.20;99.90;;;4.21;81.85;100819.00;5072628;28;20052;-61
2022/04/01 07:04:23;;;;;;;8.93;7.43;;;4.20;99.90;;;4.26;81.66;100823.47;5073951;28;20090;-61
2022/04/01 07:06:52;;;;;;;7.83;7.03;;;4.20;99.90;;;4.19;81.24;100811.13;5073613;28;20494;-61
2022/04/01 07:09:20;;;;;;;10.70;7.17;;;4.20;99.90;;;4.19;81.60;100779.72;5073658;28;20040;-61
2022/04/01 07:11:49;;;;;;;12.33;7.30;;;4.30;99.90;;;4.45;81.24;100809.03;5073593;28;20060;-60
2022/04/01 07:14:22;;;;;;;12.23;7.37;;;4.50;99.90;;;4.54;80.50;100823.19;5073588;28;20102;-62
2022/04/01 07:16:51;;;;;;;8.10;7.30;;;4.50;99.90;;;4.56;80.13;100824.09;5073732;28;20040;-62
2022/04/01 07:19:20;;;;;;;11.68;6.68;;;4.50;99.90;;;4.46;79.66;100811.69;5073705;28;20051;-61
2022/04/01 07:21:49;;;;;;;8.33;6.50;;;4.50;99.90;;;4.50;79.21;100833.56;5073419;28;20397;-61
2022/04/01 07:24:17;;;;;;;11.43;7.00;;;4.50;99.90;;;3.69;78.70;100701.97;5073319;28;20040;-61
2022/04/01 07:26:47;;;;;;;8.60;6.53;;;4.40;99.90;;;4.57;78.81;100840.66;5073470;28;20052;-63
2022/04/01 07:29:15;;;;;;;7.77;6.07;;;4.50;99.90;;;4.59;78.45;100838.97;5073571;28;20502;-60
2022/04/01 07:34:41;;;;;;;7.57;6.77;;;4.60;99.90;;;4.25;78.20;100735.34;5073409;28;20053;-60
2022/04/01 07:37:10;;;;;;;;;;;4.80;99.90;;;4.86;78.30;100844.72;5073983;28;20063;-60
2022/04/01 07:39:39;;;;;;;7.17;6.00;;;4.80;99.90;;;5.03;78.31;100852.88;5073401;28;20011;-62
2022/04/01 07:42:09;;;;;;;7.73;6.93;;;4.90;99.90;;;4.97;78.02;100832.69;5072966;28;20036;-63
2022/04/01 07:44:37;;;;;;;7.83;6.90;;;5.00;99.90;;;5.26;77.66;100854.16;5105875;28;20139;-63
2022/04/01 07:47:09;;;;;;;11.70;7.10;;;5.10;99.90;;;5.34;77.14;100863.91;5073054;28;20555;-61
2022/04/01 07:49:38;;;;;;;9.73;6.13;;;5.20;99.90;;;5.30;76.71;100853.34;5073064;28;20037;-61
2022/04/01 07:52:23;;;;;;;9.27;7.00;;;5.30;99.90;;;5.35;76.11;100862.16;5073059;28;20098;-62
2022/04/01 07:54:53;;;;;;;7.57;6.72;;;5.30;99.90;;;5.56;75.88;100875.63;5073065;28;20037;-63
2022/04/01 07:57:21;;;;;;;14.23;7.10;;;5.50;99.90;;;5.42;75.68;100827.28;5073248;28;20083;-64
2022/04/01 07:59:50;;;;;;;7.03;6.30;;;5.50;99.90;;;4.97;75.10;100737.47;5072930;28;20040;-65
2022/04/01 08:02:20;;;;;;;7.53;6.53;;;5.70;99.90;;;5.73;74.89;100870.66;5072827;28;20064;-64
2022/04/01 08:04:48;;;;;;;9.20;6.80;;;5.60;99.90;;;5.79;73.89;100876.84;5073140;28;20558;-65
2022/04/01 08:07:18;;;;;;;8.27;7.20;;;5.70;99.90;;;5.89;74.14;100877.91;5073080;28;20069;-66
2022/04/01 08:09:46;;;;;;;7.73;6.83;;;5.80;99.90;;;5.82;73.60;100882.16;5072839;28;20048;-62
2022/04/01 08:12:15;;;;;;;7.90;6.87;;;5.80;99.90;;;5.81;72.66;100888.25;5072825;28;20076;-64
2022/04/01 08:14:44;;;;;;;7.80;7.07;;;5.80;99.90;;;5.71;71.94;100861.88;5072586;28;20490;-66
2022/04/01 08:17:14;;;;;;;7.67;5.83;;;5.80;99.90;;;6.07;72.52;100888.66;5071660;28;20072;-65
2022/04/01 08:19:45;;;;;;;;;;;6.00;99.90;;;6.09;72.21;100861.59;5072167;28;20410;-64
2022/04/01 08:22:13;;;;;;;7.70;6.32;;;6.10;99.90;;;6.31;71.43;100888.97;5072684;28;19946;-64
2022/04/01 08:24:42;;;;;;;8.43;6.38;;;6.30;99.90;;;6.19;70.17;100894.94;5072574;28;20159;-65
2022/04/01 08:27:11;;;;;;;7.70;6.40;;;6.20;99.90;;;6.45;71.26;100892.66;5072898;28;20044;-65
2022/04/01 08:29:40;;;;;;;7.53;5.78;;;6.40;99.90;;;5.80;70.69;100757.91;5074861;28;20063;-64
2022/04/01 08:32:09;;;;;;;8.65;5.45;;;6.50;99.90;;;6.67;69.82;100896.44;5076665;28;20045;-65
2022/04/01 08:34:37;;;;;;;10.85;6.20;;;6.60;99.90;;;6.73;69.26;100907.03;5076487;28;20085;-67
2022/04/01 08:37:08;;;;;;;9.60;5.97;;;6.60;99.90;;;6.71;69.00;100903.50;5074975;28;20049;-68
2022/04/01 08:39:43;;;;;;;11.48;6.10;;;6.60;99.90;;;6.81;68.91;100919.41;5076415;28;20044;-66
2022/04/01 08:42:13;;;;;;;7.00;5.22;;;6.70;99.90;;;6.87;68.10;100889.69;5075502;28;20442;-68
2022/04/01 08:44:45;;;;;;;7.22;5.28;;;6.90;99.90;;;6.98;68.16;100923.09;5076333;28;20076;-66
2022/04/01 08:47:14;;;;;;;5.90;5.00;;;6.90;99.90;;;6.99;67.00;100923.97;5076681;28;20102;-68
2022/04/01 08:49:43;;;;;;;8.15;5.80;;;7.00;99.90;;;6.88;66.19;100925.59;5076157;28;20406;-66
2022/04/01 08:52:12;;;;;;;7.15;6.22;;;6.90;99.90;;;6.85;65.24;100928.22;5076191;28;20094;-66
2022/04/01 08:54:41;;;;;;;6.95;5.45;;;6.80;99.90;;;6.97;66.02;100938.84;5076180;28;20048;-65
2022/04/01 08:57:09;;;;;;;8.38;5.53;;;6.90;99.90;;;6.97;65.82;100923.06;5076131;28;20044;-69
2022/04/01 08:59:39;;;;;;;8.35;5.20;;;6.90;99.90;;;6.85;65.04;100947.47;5076071;28;20052;-68
2022/04/01 09:02:11;;;;;;;6.88;5.60;;;6.90;99.90;;;6.62;64.14;100924.44;5076183;28;20045;-65
2022/04/01 09:04:40;;;;;;;6.93;4.85;;;6.80;99.90;;;6.49;63.97;100906.72;5074974;28;20045;-65
2022/04/01 09:07:16;;;;;;;6.18;5.25;;;6.80;99.90;;;6.76;63.43;100951.72;5075943;28;20040;-65
2022/04/01 09:09:44;;;;;;;7.03;5.65;;;6.70;99.90;;;6.63;63.16;100945.47;5075948;28;20075;-62
2022/04/01 09:12:15;;;;;;;5.38;4.85;;;6.60;99.90;;;6.63;62.57;100957.72;5076140;28;20048;-62
2022/04/01 09:14:53;;;;;;;8.27;5.40;;;6.60;99.90;;;6.52;62.42;100954.06;5075959;28;20048;-63
2022/04/01 09:17:22;;;;;;;6.30;5.60;;;6.60;99.90;;;6.52;61.79;100970.72;5074894;28;20402;-68
2022/04/01 09:20:06;;;;;;;5.85;5.25;;;6.50;99.90;;;6.28;60.63;100957.25;5075970;28;20098;-70
2022/04/01 09:22:37;;;;;;;5.55;4.72;;;6.30;99.90;;;6.45;61.11;100982.00;5075695;28;20040;-69
2022/04/01 09:25:14;;;;;;;5.97;4.80;;;6.40;99.90;;;6.51;61.85;100991.69;5075583;28;20036;-68
2022/04/01 09:27:46;;;;;;;6.95;6.28;;;6.50;99.90;;;6.37;61.59;100978.38;5075621;28;20079;-68
2022/04/01 09:30:18;;;;;;;6.10;5.40;;;6.30;99.90;;;6.33;61.90;100974.81;5075519;28;20044;-71
2022/04/01 09:32:49;;;;;;;8.95;5.10;;;6.30;99.90;;;6.22;61.02;100978.16;5075391;28;20498;-65
2022/04/01 09:35:22;;;;;;;5.82;5.18;;;6.20;99.90;;;6.09;61.49;100950.84;5075495;28;20071;-65
2022/04/01 09:37:54;;;;;;;6.20;5.68;;;6.20;99.90;;;6.26;61.34;100986.09;5075292;28;20044;-69
2022/04/01 09:40:24;;;;;;;6.75;5.10;;;6.20;99.90;;;6.21;60.87;100979.03;5074256;28;20040;-64
2022/04/01 09:42:55;;;;;;;5.93;5.47;;;6.20;99.90;;;6.39;62.04;100993.28;5075566;28;20466;-65
2022/04/01 09:45:26;;;;;;;5.80;5.30;;;6.30;99.90;;;6.54;62.09;100966.38;5074844;28;20082;-65
2022/04/01 09:47:59;;;;;;;7.13;5.00;;;6.50;99.90;;;6.80;62.02;101000.84;5075463;28;20052;-62
2022/04/01 09:50:31;;;;;;;6.95;5.18;;;6.70;99.90;;;6.79;61.10;100975.44;5075229;28;20068;-64
2022/04/01 09:53:13;;;;;;;5.75;4.93;;;6.70;99.90;;;6.11;60.90;100878.25;5075484;28;20074;-68
2022/04/01 09:55:44;;;;;;;6.22;4.97;;;6.70;99.90;;;6.86;61.33;100993.03;5075118;28;20494;-66
2022/04/01 09:58:15;;;;;;;5.03;4.63;;;6.80;99.90;;;6.91;60.94;101001.91;5074050;28;20106;-64
2022/04/01 10:00:46;;;;;;;9.20;4.80;;;6.90;99.90;;;6.89;60.69;100987.84;5074965;28;20445;-65
2022/04/01 10:03:16;;;;;;;5.80;5.25;;;6.90;99.90;;;6.57;59.70;100949.75;5090877;28;20096;-63
2022/04/01 10:05:46;;;;;;;5.82;5.03;;;6.80;99.90;;;6.85;60.25;100992.16;5074853;28;20044;-63
2022/04/01 10:08:16;;;;;;;5.40;4.90;;;6.80;99.90;;;6.85;60.35;101010.56;5075121;28;20101;-71
2022/04/01 10:10:45;;;;;;;6.78;4.72;;;6.80;99.90;;;6.84;60.26;100963.22;5075092;28;20441;-69
2022/04/01 10:13:22;;;;;;;6.38;5.00;;;6.90;99.90;;;6.86;59.47;101001.81;5074722;28;20083;-69
2022/04/01 10:15:53;;;;;;;5.53;4.97;;;6.80;99.90;;;7.01;60.07;101011.63;5073749;28;20055;-65
2022/04/01 10:18:46;;;;;;;5.60;5.10;;;6.90;99.90;;;7.03;61.04;100989.75;5074583;28;20501;-68
2022/04/01 10:21:18;;;;;;;6.07;4.97;;;7.10;99.90;;;7.02;59.54;101000.25;5074839;28;20250;-69
2022/04/01 10:23:58;;;;;;;6.68;5.45;;;7.10;99.90;;;7.03;60.40;101010.78;5074748;28;20040;-68
2022/04/01 10:26:33;;;;;;;5.25;4.75;;;7.00;99.90;;;6.98;60.35;101027.38;5074536;28;20072;-69
2022/04/01 10:29:03;;;;;;;5.75;5.13;;;7.00;99.90;;;7.11;61.57;101014.41;5074684;28;20067;-69
2022/04/01 10:31:31;;;;;;;4.82;4.47;;;7.10;99.90;;;7.24;60.82;101015.41;5074930;28;20460;-69
2022/04/01 10:34:22;;;;;;;5.57;4.30;;;7.30;99.90;;;7.25;60.00;101023.34;5074308;28;20044;-69
2022/04/01 10:37:00;;;;;;;5.63;4.95;;;7.30;99.90;;;7.24;60.04;101031.19;5074452;28;20097;-66
2022/04/01 10:39:30;;;;;;;5.60;5.07;;;7.20;99.90;;;7.22;60.04;101023.28;5074258;28;20040;-65
2022/04/01 10:42:11;;;;;;;6.35;4.85;;;7.20;99.90;;;7.07;59.92;101011.72;5074413;28;20040;-67
2022/04/01 10:44:48;;;;;;;5.13;4.63;;;7.10;99.90;;;6.70;59.86;101025.25;5074093;28;20059;-67
2022/04/01 10:47:24;;;;;;;4.97;4.55;;;6.80;99.90;;;6.61;60.05;101036.53;5074521;28;20054;-66
2022/04/01 10:52:38;;;;;;;5.63;5.13;;;6.50;99.90;;;6.48;61.02;101013.56;5072777;28;20090;-65
2022/04/01 10:55:16;;;;;;;6.20;5.60;;;6.50;99.90;;;6.52;61.87;101040.78;5072941;28;20106;-64
2022/04/01 10:57:50;;;;;;;5.68;5.28;;;6.50;99.90;;;6.20;61.12;100985.13;5074209;28;20037;-64
2022/04/01 11:00:19;;;;;;;6.80;5.05;;;6.50;99.90;;;6.68;61.27;101045.41;5072880;28;20106;-64